sensor_id;sensor_type;location;lat;lon;timestamp;P1;durP1;ratioP1;P2;durP2;ratioP2
72639;SDS011;60683;51.730;8.762;2023-05-07T00:00:38;8.15;;;5.22;;
72639;SDS011;60683;51.730;8.762;2023-05-07T00:03:20;14.30;;;7.80;;
72639;SDS011;60683;51.730;8.762;2023-05-07T00:05:48;7.18;;;4.32;;
72639;SDS011;60683;51.730;8.762;2023-05-07T00:08:17;10.05;;;6.38;;
72639;SDS011;60683;51.730;8.762;2023-05-07T00:10:44;8.20;;;4.57;;
72639;SDS011;60683;51.730;8.762;2023-05-07T00:13:12;7.38;;;5.22;;
72639;SDS011;60683;51.730;8.762;2023-05-07T00:15:39;13.77;;;6.53;;
72639;SDS011;60683;51.730;8.762;2023-05-07T00:18:07;13.75;;;7.68;;
72639;SDS011;60683;51.730;8.762;2023-05-07T00:20:34;9.23;;;5.43;;
72639;SDS011;60683;51.730;8.762;2023-05-07T00:23:03;14.70;;;7.30;;
72639;SDS011;60683;51.730;8.762;2023-05-07T00:25:32;11.02;;;6.95;;
72639;SDS011;60683;51.730;8.762;2023-05-07T00:27:59;11.63;;;7.28;;
72639;SDS011;60683;51.730;8.762;2023-05-07T00:30:29;11.73;;;7.38;;
72639;SDS011;60683;51.730;8.762;2023-05-07T00:32:57;11.18;;;7.22;;
72639;SDS011;60683;51.730;8.762;2023-05-07T00:35:24;17.80;;;9.02;;
72639;SDS011;60683;51.730;8.762;2023-05-07T00:37:52;14.00;;;8.20;;
72639;SDS011;60683;51.730;8.762;2023-05-07T00:40:20;16.60;;;8.68;;
72639;SDS011;60683;51.730;8.762;2023-05-07T00:42:48;9.82;;;7.00;;
72639;SDS011;60683;51.730;8.762;2023-05-07T00:45:16;12.93;;;7.60;;
72639;SDS011;60683;51.730;8.762;2023-05-07T00:47:43;13.10;;;8.05;;
72639;SDS011;60683;51.730;8.762;2023-05-07T00:50:11;12.40;;;6.80;;
72639;SDS011;60683;51.730;8.762;2023-05-07T00:52:39;15.45;;;9.40;;
72639;SDS011;60683;51.730;8.762;2023-05-07T00:55:07;15.52;;;8.85;;
72639;SDS011;60683;51.730;8.762;2023-05-07T00:57:36;15.15;;;7.55;;
72639;SDS011;60683;51.730;8.762;2023-05-07T01:00:08;15.05;;;9.02;;
72639;SDS011;60683;51.730;8.762;2023-05-07T01:02:37;16.00;;;9.52;;
72639;SDS011;60683;51.730;8.762;2023-05-07T01:05:05;12.40;;;7.55;;
72639;SDS011;60683;51.730;8.762;2023-05-07T01:10:03;15.80;;;7.55;;
72639;SDS011;60683;51.730;8.762;2023-05-07T01:12:32;12.48;;;7.75;;
72639;SDS011;60683;51.730;8.762;2023-05-07T01:15:00;17.85;;;9.48;;
72639;SDS011;60683;51.730;8.762;2023-05-07T01:17:29;16.58;;;10.68;;
72639;SDS011;60683;51.730;8.762;2023-05-07T01:20:00;18.67;;;10.27;;
72639;SDS011;60683;51.730;8.762;2023-05-07T01:22:30;14.48;;;8.50;;
72639;SDS011;60683;51.730;8.762;2023-05-07T01:27:25;19.02;;;11.15;;
72639;SDS011;60683;51.730;8.762;2023-05-07T01:29:53;17.23;;;10.30;;
72639;SDS011;60683;51.730;8.762;2023-05-07T01:32:21;17.13;;;10.32;;
72639;SDS011;60683;51.730;8.762;2023-05-07T01:34:51;18.38;;;10.82;;
72639;SDS011;60683;51.730;8.762;2023-05-07T01:37:19;15.43;;;9.25;;
72639;SDS011;60683;51.730;8.762;2023-05-07T01:39:49;19.90;;;11.38;;
72639;SDS011;60683;51.730;8.762;2023-05-07T01:42:16;20.30;;;10.48;;
72639;SDS011;60683;51.730;8.762;2023-05-07T01:44:44;19.83;;;10.30;;
72639;SDS011;60683;51.730;8.762;2023-05-07T01:47:11;19.67;;;11.60;;
72639;SDS011;60683;51.730;8.762;2023-05-07T01:49:39;17.25;;;9.85;;
72639;SDS011;60683;51.730;8.762;2023-05-07T01:52:07;20.23;;;9.70;;
72639;SDS011;60683;51.730;8.762;2023-05-07T01:54:35;20.65;;;12.05;;
72639;SDS011;60683;51.730;8.762;2023-05-07T01:57:06;17.52;;;9.27;;
72639;SDS011;60683;51.730;8.762;2023-05-07T01:59:34;14.82;;;7.97;;
72639;SDS011;60683;51.730;8.762;2023-05-07T02:02:01;19.70;;;10.25;;
72639;SDS011;60683;51.730;8.762;2023-05-07T02:04:29;15.00;;;8.63;;
72639;SDS011;60683;51.730;8.762;2023-05-07T02:06:56;18.75;;;10.02;;
72639;SDS011;60683;51.730;8.762;2023-05-07T02:09:24;19.20;;;9.50;;
72639;SDS011;60683;51.730;8.762;2023-05-07T02:11:51;22.33;;;9.63;;
72639;SDS011;60683;51.730;8.762;2023-05-07T02:14:20;18.85;;;10.20;;
72639;SDS011;60683;51.730;8.762;2023-05-07T02:16:47;16.13;;;10.15;;
72639;SDS011;60683;51.730;8.762;2023-05-07T02:19:15;18.10;;;10.88;;
72639;SDS011;60683;51.730;8.762;2023-05-07T02:21:42;15.48;;;9.55;;
72639;SDS011;60683;51.730;8.762;2023-05-07T02:24:10;17.90;;;9.30;;
72639;SDS011;60683;51.730;8.762;2023-05-07T02:26:37;16.52;;;9.60;;
72639;SDS011;60683;51.730;8.762;2023-05-07T02:29:05;18.55;;;10.13;;
72639;SDS011;60683;51.730;8.762;2023-05-07T02:31:34;12.82;;;7.25;;
72639;SDS011;60683;51.730;8.762;2023-05-07T02:34:01;13.07;;;8.05;;
72639;SDS011;60683;51.730;8.762;2023-05-07T02:36:29;18.13;;;10.23;;
72639;SDS011;60683;51.730;8.762;2023-05-07T02:38:57;22.40;;;11.60;;
72639;SDS011;60683;51.730;8.762;2023-05-07T02:41:24;13.68;;;8.40;;
72639;SDS011;60683;51.730;8.762;2023-05-07T02:43:52;18.38;;;10.73;;
72639;SDS011;60683;51.730;8.762;2023-05-07T02:46:19;16.48;;;8.80;;
72639;SDS011;60683;51.730;8.762;2023-05-07T02:48:48;21.50;;;11.00;;
72639;SDS011;60683;51.730;8.762;2023-05-07T02:51:17;11.80;;;6.72;;
72639;SDS011;60683;51.730;8.762;2023-05-07T02:53:46;18.67;;;11.18;;
72639;SDS011;60683;51.730;8.762;2023-05-07T02:56:13;21.88;;;11.35;;
72639;SDS011;60683;51.730;8.762;2023-05-07T02:58:41;21.33;;;11.00;;
72639;SDS011;60683;51.730;8.762;2023-05-07T03:01:08;10.85;;;5.63;;
72639;SDS011;60683;51.730;8.762;2023-05-07T03:03:36;14.00;;;7.07;;
72639;SDS011;60683;51.730;8.762;2023-05-07T03:06:05;20.45;;;11.50;;
72639;SDS011;60683;51.730;8.762;2023-05-07T03:08:36;17.40;;;9.10;;
72639;SDS011;60683;51.730;8.762;2023-05-07T03:11:03;18.52;;;10.98;;
72639;SDS011;60683;51.730;8.762;2023-05-07T03:13:31;21.63;;;11.82;;
72639;SDS011;60683;51.730;8.762;2023-05-07T03:15:59;21.75;;;11.35;;
72639;SDS011;60683;51.730;8.762;2023-05-07T03:18:26;18.35;;;9.45;;
72639;SDS011;60683;51.730;8.762;2023-05-07T03:20:53;18.58;;;9.52;;
72639;SDS011;60683;51.730;8.762;2023-05-07T03:23:22;24.00;;;12.98;;
72639;SDS011;60683;51.730;8.762;2023-05-07T03:25:50;18.33;;;9.63;;
72639;SDS011;60683;51.730;8.762;2023-05-07T03:28:17;25.75;;;12.45;;
72639;SDS011;60683;51.730;8.762;2023-05-07T03:30:45;17.42;;;9.60;;
72639;SDS011;60683;51.730;8.762;2023-05-07T03:33:13;23.83;;;11.55;;
72639;SDS011;60683;51.730;8.762;2023-05-07T03:35:41;20.80;;;11.00;;
72639;SDS011;60683;51.730;8.762;2023-05-07T03:38:08;24.85;;;12.88;;
72639;SDS011;60683;51.730;8.762;2023-05-07T03:40:37;25.02;;;11.93;;
72639;SDS011;60683;51.730;8.762;2023-05-07T03:43:05;24.35;;;12.90;;
72639;SDS011;60683;51.730;8.762;2023-05-07T03:45:32;19.77;;;11.00;;
72639;SDS011;60683;51.730;8.762;2023-05-07T03:48:00;25.20;;;11.60;;
72639;SDS011;60683;51.730;8.762;2023-05-07T03:50:27;27.08;;;13.80;;
72639;SDS011;60683;51.730;8.762;2023-05-07T03:52:55;25.00;;;13.52;;
72639;SDS011;60683;51.730;8.762;2023-05-07T03:55:22;25.38;;;12.48;;
72639;SDS011;60683;51.730;8.762;2023-05-07T03:57:52;26.20;;;14.10;;
72639;SDS011;60683;51.730;8.762;2023-05-07T04:00:19;21.38;;;10.73;;
72639;SDS011;60683;51.730;8.762;2023-05-07T04:02:48;28.83;;;13.45;;
72639;SDS011;60683;51.730;8.762;2023-05-07T04:05:15;21.02;;;10.50;;
72639;SDS011;60683;51.730;8.762;2023-05-07T04:07:43;18.52;;;8.68;;
72639;SDS011;60683;51.730;8.762;2023-05-07T04:10:10;26.48;;;11.80;;
72639;SDS011;60683;51.730;8.762;2023-05-07T04:12:39;23.88;;;12.65;;
72639;SDS011;60683;51.730;8.762;2023-05-07T04:15:08;21.25;;;11.40;;
72639;SDS011;60683;51.730;8.762;2023-05-07T04:17:36;24.67;;;13.13;;
72639;SDS011;60683;51.730;8.762;2023-05-07T04:20:04;19.35;;;9.02;;
72639;SDS011;60683;51.730;8.762;2023-05-07T04:22:33;24.90;;;11.63;;
72639;SDS011;60683;51.730;8.762;2023-05-07T04:25:00;22.92;;;11.95;;
72639;SDS011;60683;51.730;8.762;2023-05-07T04:27:28;22.25;;;11.18;;
72639;SDS011;60683;51.730;8.762;2023-05-07T04:29:56;26.02;;;12.85;;
72639;SDS011;60683;51.730;8.762;2023-05-07T04:32:25;27.75;;;12.55;;
72639;SDS011;60683;51.730;8.762;2023-05-07T04:34:54;26.55;;;13.25;;
72639;SDS011;60683;51.730;8.762;2023-05-07T04:37:22;22.17;;;10.73;;
72639;SDS011;60683;51.730;8.762;2023-05-07T04:39:50;24.45;;;12.10;;
72639;SDS011;60683;51.730;8.762;2023-05-07T04:42:17;26.45;;;13.90;;
72639;SDS011;60683;51.730;8.762;2023-05-07T04:44:45;22.17;;;10.52;;
72639;SDS011;60683;51.730;8.762;2023-05-07T04:47:12;20.27;;;9.80;;
72639;SDS011;60683;51.730;8.762;2023-05-07T04:49:41;24.63;;;12.77;;
72639;SDS011;60683;51.730;8.762;2023-05-07T04:52:09;20.80;;;12.57;;
72639;SDS011;60683;51.730;8.762;2023-05-07T04:54:36;26.67;;;13.45;;
72639;SDS011;60683;51.730;8.762;2023-05-07T04:57:03;19.50;;;10.60;;
72639;SDS011;60683;51.730;8.762;2023-05-07T04:59:31;23.52;;;11.18;;
72639;SDS011;60683;51.730;8.762;2023-05-07T05:01:59;22.30;;;10.98;;
72639;SDS011;60683;51.730;8.762;2023-05-07T05:04:27;25.25;;;11.68;;
72639;SDS011;60683;51.730;8.762;2023-05-07T05:06:55;20.42;;;9.95;;
72639;SDS011;60683;51.730;8.762;2023-05-07T05:09:23;24.02;;;12.50;;
72639;SDS011;60683;51.730;8.762;2023-05-07T05:11:51;27.20;;;13.13;;
72639;SDS011;60683;51.730;8.762;2023-05-07T05:14:18;18.08;;;9.52;;
72639;SDS011;60683;51.730;8.762;2023-05-07T05:16:46;21.98;;;10.70;;
72639;SDS011;60683;51.730;8.762;2023-05-07T05:19:13;18.60;;;9.48;;
72639;SDS011;60683;51.730;8.762;2023-05-07T05:21:41;20.13;;;10.25;;
72639;SDS011;60683;51.730;8.762;2023-05-07T05:24:09;20.90;;;11.27;;
72639;SDS011;60683;51.730;8.762;2023-05-07T05:26:37;22.85;;;12.48;;
72639;SDS011;60683;51.730;8.762;2023-05-07T05:29:04;17.95;;;9.93;;
72639;SDS011;60683;51.730;8.762;2023-05-07T05:31:32;16.75;;;8.93;;
72639;SDS011;60683;51.730;8.762;2023-05-07T05:33:59;13.65;;;8.40;;
72639;SDS011;60683;51.730;8.762;2023-05-07T05:36:27;13.93;;;8.43;;
72639;SDS011;60683;51.730;8.762;2023-05-07T05:38:55;21.30;;;11.15;;
72639;SDS011;60683;51.730;8.762;2023-05-07T05:41:24;22.00;;;8.70;;
72639;SDS011;60683;51.730;8.762;2023-05-07T05:43:51;14.52;;;7.97;;
72639;SDS011;60683;51.730;8.762;2023-05-07T05:46:19;20.27;;;10.65;;
72639;SDS011;60683;51.730;8.762;2023-05-07T05:48:46;18.20;;;9.40;;
72639;SDS011;60683;51.730;8.762;2023-05-07T05:51:14;16.52;;;8.98;;
72639;SDS011;60683;51.730;8.762;2023-05-07T05:53:41;21.73;;;11.02;;
72639;SDS011;60683;51.730;8.762;2023-05-07T05:56:09;16.38;;;7.80;;
72639;SDS011;60683;51.730;8.762;2023-05-07T05:58:38;15.82;;;8.40;;
72639;SDS011;60683;51.730;8.762;2023-05-07T06:01:05;15.20;;;8.60;;
72639;SDS011;60683;51.730;8.762;2023-05-07T06:03:32;19.50;;;10.40;;
72639;SDS011;60683;51.730;8.762;2023-05-07T06:06:00;16.40;;;8.65;;
72639;SDS011;60683;51.730;8.762;2023-05-07T06:08:29;13.32;;;7.95;;
72639;SDS011;60683;51.730;8.762;2023-05-07T06:10:57;19.95;;;8.65;;
72639;SDS011;60683;51.730;8.762;2023-05-07T06:13:24;12.60;;;6.55;;
72639;SDS011;60683;51.730;8.762;2023-05-07T06:15:53;14.23;;;7.35;;
72639;SDS011;60683;51.730;8.762;2023-05-07T06:18:20;14.38;;;7.43;;
72639;SDS011;60683;51.730;8.762;2023-05-07T06:20:48;14.98;;;8.00;;
72639;SDS011;60683;51.730;8.762;2023-05-07T06:23:15;15.45;;;8.07;;
72639;SDS011;60683;51.730;8.762;2023-05-07T06:25:45;15.98;;;8.23;;
72639;SDS011;60683;51.730;8.762;2023-05-07T06:28:14;14.50;;;8.10;;
72639;SDS011;60683;51.730;8.762;2023-05-07T06:30:42;15.40;;;7.30;;
72639;SDS011;60683;51.730;8.762;2023-05-07T06:33:11;14.45;;;8.23;;
72639;SDS011;60683;51.730;8.762;2023-05-07T06:35:38;18.02;;;9.27;;
72639;SDS011;60683;51.730;8.762;2023-05-07T06:38:06;17.55;;;8.73;;
72639;SDS011;60683;51.730;8.762;2023-05-07T06:40:33;13.30;;;6.15;;
72639;SDS011;60683;51.730;8.762;2023-05-07T06:43:01;18.75;;;9.07;;
72639;SDS011;60683;51.730;8.762;2023-05-07T06:45:28;10.05;;;6.10;;
72639;SDS011;60683;51.730;8.762;2023-05-07T06:47:56;12.30;;;6.45;;
72639;SDS011;60683;51.730;8.762;2023-05-07T06:50:27;15.32;;;8.18;;
72639;SDS011;60683;51.730;8.762;2023-05-07T06:52:55;14.50;;;6.90;;
72639;SDS011;60683;51.730;8.762;2023-05-07T06:55:25;12.63;;;5.68;;
72639;SDS011;60683;51.730;8.762;2023-05-07T06:57:52;10.63;;;5.22;;
72639;SDS011;60683;51.730;8.762;2023-05-07T07:00:20;16.98;;;9.25;;
72639;SDS011;60683;51.730;8.762;2023-05-07T07:02:48;13.55;;;7.25;;
72639;SDS011;60683;51.730;8.762;2023-05-07T07:05:16;15.88;;;8.82;;
72639;SDS011;60683;51.730;8.762;2023-05-07T07:07:45;12.00;;;6.30;;
72639;SDS011;60683;51.730;8.762;2023-05-07T07:10:18;14.40;;;7.32;;
72639;SDS011;60683;51.730;8.762;2023-05-07T07:12:46;16.20;;;7.80;;
72639;SDS011;60683;51.730;8.762;2023-05-07T07:15:13;13.15;;;7.00;;
72639;SDS011;60683;51.730;8.762;2023-05-07T07:17:41;12.18;;;5.93;;
72639;SDS011;60683;51.730;8.762;2023-05-07T07:20:09;13.57;;;6.82;;
72639;SDS011;60683;51.730;8.762;2023-05-07T07:22:37;9.88;;;5.25;;
72639;SDS011;60683;51.730;8.762;2023-05-07T07:25:07;13.63;;;6.97;;
72639;SDS011;60683;51.730;8.762;2023-05-07T07:27:35;14.23;;;7.28;;
72639;SDS011;60683;51.730;8.762;2023-05-07T07:30:03;10.50;;;6.03;;
72639;SDS011;60683;51.730;8.762;2023-05-07T07:32:32;13.10;;;6.63;;
72639;SDS011;60683;51.730;8.762;2023-05-07T07:34:59;14.70;;;8.68;;
72639;SDS011;60683;51.730;8.762;2023-05-07T07:37:27;10.90;;;5.75;;
72639;SDS011;60683;51.730;8.762;2023-05-07T07:39:55;13.82;;;6.45;;
72639;SDS011;60683;51.730;8.762;2023-05-07T07:42:24;7.68;;;4.43;;
72639;SDS011;60683;51.730;8.762;2023-05-07T07:44:52;12.52;;;5.85;;
72639;SDS011;60683;51.730;8.762;2023-05-07T07:47:20;12.52;;;6.93;;
72639;SDS011;60683;51.730;8.762;2023-05-07T07:49:48;11.23;;;6.35;;
72639;SDS011;60683;51.730;8.762;2023-05-07T07:52:15;11.45;;;6.60;;
72639;SDS011;60683;51.730;8.762;2023-05-07T07:54:43;14.45;;;6.60;;
72639;SDS011;60683;51.730;8.762;2023-05-07T07:57:11;9.57;;;5.00;;
72639;SDS011;60683;51.730;8.762;2023-05-07T07:59:40;12.35;;;6.40;;
72639;SDS011;60683;51.730;8.762;2023-05-07T08:02:09;9.27;;;5.10;;
72639;SDS011;60683;51.730;8.762;2023-05-07T08:04:37;11.52;;;6.07;;
72639;SDS011;60683;51.730;8.762;2023-05-07T08:07:05;9.20;;;5.00;;
72639;SDS011;60683;51.730;8.762;2023-05-07T08:09:33;10.50;;;5.13;;
72639;SDS011;60683;51.730;8.762;2023-05-07T08:12:00;10.30;;;4.45;;
72639;SDS011;60683;51.730;8.762;2023-05-07T08:14:28;10.23;;;5.35;;
72639;SDS011;60683;51.730;8.762;2023-05-07T08:16:57;11.93;;;6.32;;
72639;SDS011;60683;51.730;8.762;2023-05-07T08:19:25;10.10;;;4.93;;
72639;SDS011;60683;51.730;8.762;2023-05-07T08:21:53;9.57;;;4.57;;
72639;SDS011;60683;51.730;8.762;2023-05-07T08:24:21;11.10;;;5.57;;
72639;SDS011;60683;51.730;8.762;2023-05-07T08:26:48;15.43;;;6.80;;
72639;SDS011;60683;51.730;8.762;2023-05-07T08:29:17;8.80;;;4.97;;
72639;SDS011;60683;51.730;8.762;2023-05-07T08:31:44;11.05;;;5.57;;
72639;SDS011;60683;51.730;8.762;2023-05-07T08:34:14;8.50;;;4.75;;
72639;SDS011;60683;51.730;8.762;2023-05-07T08:36:41;11.18;;;6.50;;
72639;SDS011;60683;51.730;8.762;2023-05-07T08:39:09;12.75;;;6.28;;
72639;SDS011;60683;51.730;8.762;2023-05-07T08:41:38;12.10;;;6.43;;
72639;SDS011;60683;51.730;8.762;2023-05-07T08:44:08;10.18;;;5.40;;
72639;SDS011;60683;51.730;8.762;2023-05-07T08:46:39;10.30;;;5.53;;
72639;SDS011;60683;51.730;8.762;2023-05-07T08:49:09;11.43;;;6.50;;
72639;SDS011;60683;51.730;8.762;2023-05-07T08:51:38;10.95;;;4.70;;
72639;SDS011;60683;51.730;8.762;2023-05-07T08:54:06;9.48;;;5.22;;
72639;SDS011;60683;51.730;8.762;2023-05-07T08:56:34;8.57;;;4.57;;
72639;SDS011;60683;51.730;8.762;2023-05-07T08:59:02;11.65;;;5.57;;
72639;SDS011;60683;51.730;8.762;2023-05-07T09:01:30;12.88;;;5.97;;
72639;SDS011;60683;51.730;8.762;2023-05-07T09:03:57;10.90;;;5.25;;
72639;SDS011;60683;51.730;8.762;2023-05-07T09:06:25;9.68;;;5.13;;
72639;SDS011;60683;51.730;8.762;2023-05-07T09:08:54;8.05;;;4.47;;
72639;SDS011;60683;51.730;8.762;2023-05-07T09:11:26;11.55;;;6.18;;
72639;SDS011;60683;51.730;8.762;2023-05-07T09:13:54;7.68;;;5.85;;
72639;SDS011;60683;51.730;8.762;2023-05-07T09:16:23;8.57;;;5.28;;
72639;SDS011;60683;51.730;8.762;2023-05-07T09:18:52;9.15;;;5.68;;
72639;SDS011;60683;51.730;8.762;2023-05-07T09:21:20;10.70;;;5.47;;
72639;SDS011;60683;51.730;8.762;2023-05-07T09:23:50;12.00;;;6.32;;
72639;SDS011;60683;51.730;8.762;2023-05-07T09:26:19;9.18;;;4.72;;
72639;SDS011;60683;51.730;8.762;2023-05-07T09:28:48;9.88;;;5.60;;
72639;SDS011;60683;51.730;8.762;2023-05-07T09:31:16;8.82;;;5.13;;
72639;SDS011;60683;51.730;8.762;2023-05-07T09:33:43;8.35;;;5.30;;
72639;SDS011;60683;51.730;8.762;2023-05-07T09:36:11;8.65;;;5.15;;
72639;SDS011;60683;51.730;8.762;2023-05-07T09:38:39;10.07;;;5.05;;
72639;SDS011;60683;51.730;8.762;2023-05-07T09:41:08;9.68;;;5.55;;
72639;SDS011;60683;51.730;8.762;2023-05-07T09:43:38;10.23;;;4.97;;
72639;SDS011;60683;51.730;8.762;2023-05-07T09:46:09;10.82;;;5.22;;
72639;SDS011;60683;51.730;8.762;2023-05-07T09:48:39;8.20;;;5.05;;
72639;SDS011;60683;51.730;8.762;2023-05-07T09:51:15;10.05;;;5.80;;
72639;SDS011;60683;51.730;8.762;2023-05-07T09:53:48;12.13;;;5.70;;
72639;SDS011;60683;51.730;8.762;2023-05-07T09:56:16;8.40;;;4.47;;
72639;SDS011;60683;51.730;8.762;2023-05-07T09:58:46;8.50;;;5.25;;
72639;SDS011;60683;51.730;8.762;2023-05-07T10:01:14;10.00;;;5.72;;
72639;SDS011;60683;51.730;8.762;2023-05-07T10:03:41;9.20;;;5.05;;
72639;SDS011;60683;51.730;8.762;2023-05-07T10:06:11;7.80;;;4.45;;
72639;SDS011;60683;51.730;8.762;2023-05-07T10:08:39;9.23;;;4.60;;
72639;SDS011;60683;51.730;8.762;2023-05-07T10:11:07;10.18;;;5.20;;
72639;SDS011;60683;51.730;8.762;2023-05-07T10:13:35;10.35;;;5.18;;
72639;SDS011;60683;51.730;8.762;2023-05-07T10:16:05;10.23;;;5.40;;
72639;SDS011;60683;51.730;8.762;2023-05-07T10:18:33;9.25;;;4.78;;
72639;SDS011;60683;51.730;8.762;2023-05-07T10:21:02;8.52;;;4.15;;
72639;SDS011;60683;51.730;8.762;2023-05-07T10:23:34;9.13;;;5.05;;
72639;SDS011;60683;51.730;8.762;2023-05-07T10:26:03;7.72;;;4.47;;
72639;SDS011;60683;51.730;8.762;2023-05-07T10:28:34;12.02;;;4.90;;
72639;SDS011;60683;51.730;8.762;2023-05-07T10:33:53;9.82;;;4.38;;
72639;SDS011;60683;51.730;8.762;2023-05-07T10:36:22;8.65;;;4.55;;
72639;SDS011;60683;51.730;8.762;2023-05-07T10:38:51;7.93;;;4.28;;
72639;SDS011;60683;51.730;8.762;2023-05-07T10:41:19;10.40;;;5.28;;
72639;SDS011;60683;51.730;8.762;2023-05-07T10:43:47;8.52;;;3.85;;
72639;SDS011;60683;51.730;8.762;2023-05-07T10:46:15;8.18;;;4.40;;
72639;SDS011;60683;51.730;8.762;2023-05-07T10:51:40;9.15;;;3.95;;
72639;SDS011;60683;51.730;8.762;2023-05-07T10:54:21;8.35;;;3.88;;
72639;SDS011;60683;51.730;8.762;2023-05-07T10:56:49;7.90;;;4.80;;
72639;SDS011;60683;51.730;8.762;2023-05-07T10:59:31;9.93;;;4.63;;
72639;SDS011;60683;51.730;8.762;2023-05-07T11:02:07;7.68;;;4.43;;
72639;SDS011;60683;51.730;8.762;2023-05-07T11:04:38;7.13;;;3.63;;
72639;SDS011;60683;51.730;8.762;2023-05-07T11:07:26;9.32;;;5.10;;
72639;SDS011;60683;51.730;8.762;2023-05-07T11:09:55;8.30;;;4.13;;
72639;SDS011;60683;51.730;8.762;2023-05-07T11:18:17;7.30;;;3.58;;
72639;SDS011;60683;51.730;8.762;2023-05-07T11:20:50;7.30;;;3.25;;
72639;SDS011;60683;51.730;8.762;2023-05-07T11:26:07;7.03;;;4.00;;
72639;SDS011;60683;51.730;8.762;2023-05-07T11:28:36;7.95;;;4.18;;
72639;SDS011;60683;51.730;8.762;2023-05-07T11:31:05;6.65;;;3.30;;
72639;SDS011;60683;51.730;8.762;2023-05-07T11:33:33;7.88;;;4.70;;
72639;SDS011;60683;51.730;8.762;2023-05-07T11:36:03;6.03;;;3.50;;
72639;SDS011;60683;51.730;8.762;2023-05-07T11:38:34;6.00;;;3.00;;
72639;SDS011;60683;51.730;8.762;2023-05-07T11:41:04;6.78;;;3.83;;
72639;SDS011;60683;51.730;8.762;2023-05-07T11:43:32;5.88;;;3.83;;
72639;SDS011;60683;51.730;8.762;2023-05-07T11:46:05;7.90;;;4.15;;
72639;SDS011;60683;51.730;8.762;2023-05-07T11:48:33;6.22;;;3.65;;
72639;SDS011;60683;51.730;8.762;2023-05-07T11:51:03;7.18;;;4.03;;
72639;SDS011;60683;51.730;8.762;2023-05-07T11:53:36;6.20;;;3.53;;
72639;SDS011;60683;51.730;8.762;2023-05-07T11:56:07;4.70;;;2.92;;
72639;SDS011;60683;51.730;8.762;2023-05-07T11:58:34;6.60;;;3.58;;
72639;SDS011;60683;51.730;8.762;2023-05-07T12:01:03;6.75;;;3.58;;
72639;SDS011;60683;51.730;8.762;2023-05-07T12:03:31;7.10;;;3.15;;
72639;SDS011;60683;51.730;8.762;2023-05-07T12:05:59;7.13;;;3.80;;
72639;SDS011;60683;51.730;8.762;2023-05-07T12:08:28;6.07;;;3.15;;
72639;SDS011;60683;51.730;8.762;2023-05-07T12:10:56;6.30;;;3.03;;
72639;SDS011;60683;51.730;8.762;2023-05-07T12:13:24;6.68;;;3.33;;
72639;SDS011;60683;51.730;8.762;2023-05-07T12:15:52;4.82;;;2.95;;
72639;SDS011;60683;51.730;8.762;2023-05-07T12:18:21;6.47;;;2.78;;
72639;SDS011;60683;51.730;8.762;2023-05-07T12:20:49;4.97;;;2.38;;
72639;SDS011;60683;51.730;8.762;2023-05-07T12:23:17;6.68;;;3.00;;
72639;SDS011;60683;51.730;8.762;2023-05-07T12:25:46;5.35;;;3.03;;
72639;SDS011;60683;51.730;8.762;2023-05-07T12:28:13;5.60;;;3.00;;
72639;SDS011;60683;51.730;8.762;2023-05-07T12:30:42;5.50;;;2.78;;
72639;SDS011;60683;51.730;8.762;2023-05-07T12:33:10;5.63;;;3.33;;
72639;SDS011;60683;51.730;8.762;2023-05-07T12:35:39;7.70;;;3.78;;
72639;SDS011;60683;51.730;8.762;2023-05-07T12:38:07;5.50;;;3.17;;
72639;SDS011;60683;51.730;8.762;2023-05-07T12:40:35;5.57;;;3.03;;
72639;SDS011;60683;51.730;8.762;2023-05-07T12:43:05;5.53;;;2.92;;
72639;SDS011;60683;51.730;8.762;2023-05-07T12:45:36;4.45;;;2.55;;
72639;SDS011;60683;51.730;8.762;2023-05-07T12:48:04;5.95;;;3.17;;
72639;SDS011;60683;51.730;8.762;2023-05-07T12:50:32;5.70;;;2.83;;
72639;SDS011;60683;51.730;8.762;2023-05-07T12:53:00;4.65;;;2.63;;
72639;SDS011;60683;51.730;8.762;2023-05-07T12:55:32;5.75;;;3.03;;
72639;SDS011;60683;51.730;8.762;2023-05-07T12:58:00;5.05;;;2.60;;
72639;SDS011;60683;51.730;8.762;2023-05-07T13:00:37;6.05;;;3.17;;
72639;SDS011;60683;51.730;8.762;2023-05-07T13:03:04;5.50;;;2.80;;
72639;SDS011;60683;51.730;8.762;2023-05-07T13:05:32;5.18;;;2.88;;
72639;SDS011;60683;51.730;8.762;2023-05-07T13:08:00;6.47;;;2.80;;
72639;SDS011;60683;51.730;8.762;2023-05-07T13:10:28;7.10;;;3.67;;
72639;SDS011;60683;51.730;8.762;2023-05-07T13:12:56;5.90;;;3.10;;
72639;SDS011;60683;51.730;8.762;2023-05-07T13:15:24;6.80;;;3.80;;
72639;SDS011;60683;51.730;8.762;2023-05-07T13:17:54;6.82;;;3.20;;
72639;SDS011;60683;51.730;8.762;2023-05-07T13:20:22;6.05;;;3.45;;
72639;SDS011;60683;51.730;8.762;2023-05-07T13:22:49;6.72;;;3.80;;
72639;SDS011;60683;51.730;8.762;2023-05-07T13:25:17;5.45;;;3.28;;
72639;SDS011;60683;51.730;8.762;2023-05-07T13:27:45;7.25;;;4.07;;
72639;SDS011;60683;51.730;8.762;2023-05-07T13:30:13;6.40;;;3.88;;
72639;SDS011;60683;51.730;8.762;2023-05-07T13:32:40;6.25;;;3.47;;
72639;SDS011;60683;51.730;8.762;2023-05-07T13:35:09;6.55;;;4.50;;
72639;SDS011;60683;51.730;8.762;2023-05-07T13:37:36;9.43;;;4.72;;
72639;SDS011;60683;51.730;8.762;2023-05-07T13:40:05;9.95;;;4.45;;
72639;SDS011;60683;51.730;8.762;2023-05-07T13:42:33;6.93;;;4.07;;
72639;SDS011;60683;51.730;8.762;2023-05-07T13:45:01;7.63;;;4.25;;
72639;SDS011;60683;51.730;8.762;2023-05-07T13:47:29;8.48;;;5.13;;
72639;SDS011;60683;51.730;8.762;2023-05-07T13:49:57;9.02;;;4.63;;
72639;SDS011;60683;51.730;8.762;2023-05-07T13:52:26;11.10;;;5.35;;
72639;SDS011;60683;51.730;8.762;2023-05-07T13:54:53;8.35;;;4.90;;
72639;SDS011;60683;51.730;8.762;2023-05-07T13:57:22;9.93;;;5.75;;
72639;SDS011;60683;51.730;8.762;2023-05-07T13:59:49;8.20;;;5.30;;
72639;SDS011;60683;51.730;8.762;2023-05-07T14:02:17;8.65;;;4.55;;
72639;SDS011;60683;51.730;8.762;2023-05-07T14:04:44;8.70;;;4.28;;
72639;SDS011;60683;51.730;8.762;2023-05-07T14:07:12;9.23;;;5.55;;
72639;SDS011;60683;51.730;8.762;2023-05-07T14:09:41;9.43;;;5.57;;
72639;SDS011;60683;51.730;8.762;2023-05-07T14:12:08;10.13;;;5.88;;
72639;SDS011;60683;51.730;8.762;2023-05-07T14:14:36;13.27;;;5.53;;
72639;SDS011;60683;51.730;8.762;2023-05-07T14:17:03;11.50;;;6.15;;
72639;SDS011;60683;51.730;8.762;2023-05-07T14:19:31;10.68;;;5.68;;
72639;SDS011;60683;51.730;8.762;2023-05-07T14:21:58;9.05;;;6.22;;
72639;SDS011;60683;51.730;8.762;2023-05-07T14:24:26;9.57;;;5.82;;
72639;SDS011;60683;51.730;8.762;2023-05-07T14:26:54;9.23;;;5.18;;
72639;SDS011;60683;51.730;8.762;2023-05-07T14:29:22;9.32;;;5.80;;
72639;SDS011;60683;51.730;8.762;2023-05-07T14:31:50;9.27;;;5.75;;
72639;SDS011;60683;51.730;8.762;2023-05-07T14:34:18;7.65;;;4.45;;
72639;SDS011;60683;51.730;8.762;2023-05-07T14:36:45;9.20;;;6.03;;
72639;SDS011;60683;51.730;8.762;2023-05-07T14:39:13;8.65;;;5.53;;
72639;SDS011;60683;51.730;8.762;2023-05-07T14:41:40;10.70;;;6.18;;
72639;SDS011;60683;51.730;8.762;2023-05-07T14:44:09;7.38;;;4.63;;
72639;SDS011;60683;51.730;8.762;2023-05-07T14:46:36;7.90;;;6.05;;
72639;SDS011;60683;51.730;8.762;2023-05-07T14:49:04;10.20;;;6.35;;
72639;SDS011;60683;51.730;8.762;2023-05-07T14:51:32;10.73;;;6.07;;
72639;SDS011;60683;51.730;8.762;2023-05-07T14:53:59;10.18;;;5.60;;
72639;SDS011;60683;51.730;8.762;2023-05-07T14:56:27;10.15;;;6.55;;
72639;SDS011;60683;51.730;8.762;2023-05-07T14:58:55;10.63;;;6.18;;
72639;SDS011;60683;51.730;8.762;2023-05-07T15:01:24;11.27;;;6.80;;